createdAt,value
2019-05-26T00:01:48.169Z,60.30
2019-05-26T00:04:22.082Z,60.50
2019-05-26T00:06:55.783Z,60.70
2019-05-26T00:09:29.636Z,60.70
2019-05-26T00:12:03.305Z,60.70
2019-05-26T00:14:37.052Z,60.90
2019-05-26T00:17:11.132Z,61.00
2019-05-26T00:19:44.984Z,60.90
2019-05-26T00:22:19.065Z,61.00
2019-05-26T00:24:52.864Z,61.10
2019-05-26T00:27:26.748Z,61.10
2019-05-26T00:30:00.480Z,61.10
2019-05-26T00:32:34.388Z,61.20
2019-05-26T00:35:08.771Z,61.30
2019-05-26T00:37:50.694Z,61.30
2019-05-26T00:40:18.370Z,61.40
2019-05-26T00:42:52.441Z,61.60
2019-05-26T00:45:26.467Z,61.70
2019-05-26T00:48:00.367Z,61.70
2019-05-26T00:50:34.304Z,61.70
2019-05-26T00:53:08.220Z,61.80
2019-05-26T00:55:42.185Z,61.90
2019-05-26T00:58:16.216Z,62.00
2019-05-26T01:00:50.091Z,61.90
2019-05-26T01:03:24.059Z,62.00
2019-05-26T01:05:57.990Z,62.10
2019-05-26T01:08:31.764Z,62.10
2019-05-26T01:11:06.159Z,62.10
2019-05-26T01:13:40.087Z,62.20
2019-05-26T01:16:13.820Z,62.10
2019-05-26T01:18:47.661Z,62.10
2019-05-26T01:21:21.257Z,62.20
2019-05-26T01:23:54.938Z,62.30
2019-05-26T01:26:28.883Z,62.20
2019-05-26T01:29:02.580Z,62.30
2019-05-26T01:31:36.301Z,62.50
2019-05-26T01:34:10.144Z,62.70
2019-05-26T01:36:43.974Z,62.90
2019-05-26T01:39:17.998Z,63.00
2019-05-26T01:41:51.818Z,63.00
2019-05-26T01:44:25.662Z,63.10
2019-05-26T01:46:59.396Z,63.30
2019-05-26T01:49:33.165Z,63.50
2019-05-26T01:52:06.846Z,63.50
2019-05-26T01:54:41.142Z,64.80
2019-05-26T01:57:15.029Z,64.10
2019-05-26T01:59:48.899Z,64.40
2019-05-26T02:02:22.730Z,64.20
2019-05-26T02:04:56.528Z,64.50
2019-05-26T02:07:30.245Z,64.50
2019-05-26T02:10:05.285Z,64.30
2019-05-26T02:12:39.062Z,64.60
2019-05-26T02:15:13.402Z,64.70
2019-05-26T02:17:47.138Z,65.00
2019-05-26T02:20:21.563Z,64.60
2019-05-26T02:22:55.326Z,64.70
2019-05-26T02:25:28.938Z,64.40
2019-05-26T02:28:02.583Z,64.40
2019-05-26T02:30:36.403Z,64.40
2019-05-26T02:33:10.129Z,64.10
2019-05-26T02:35:44.013Z,64.60
2019-05-26T02:38:17.880Z,64.60
2019-05-26T02:40:51.720Z,64.80
2019-05-26T02:43:25.546Z,64.30
2019-05-26T02:45:59.377Z,64.70
2019-05-26T02:48:33.205Z,64.40
2019-05-26T02:51:07.033Z,64.60
2019-05-26T02:53:40.853Z,64.30
2019-05-26T02:56:14.632Z,64.10
2019-05-26T02:58:48.658Z,64.20
2019-05-26T03:01:23.563Z,64.10
2019-05-26T03:03:57.402Z,64.10
2019-05-26T03:06:32.902Z,64.10
2019-05-26T03:09:22.095Z,64.00
2019-05-26T03:11:45.876Z,63.90
2019-05-26T03:14:20.810Z,63.90
2019-05-26T03:16:57.554Z,63.80
2019-05-26T03:19:33.739Z,63.80
2019-05-26T03:22:07.521Z,63.80
2019-05-26T03:24:44.213Z,63.70
2019-05-26T03:27:18.209Z,63.80
2019-05-26T03:29:51.881Z,63.80
2019-05-26T03:32:25.929Z,64.00
2019-05-26T03:34:59.643Z,64.00
2019-05-26T03:37:33.924Z,64.00
2019-05-26T03:40:09.561Z,64.10
2019-05-26T03:42:43.424Z,64.00
2019-05-26T03:45:24.654Z,63.90
2019-05-26T03:47:58.337Z,64.00
2019-05-26T03:50:32.141Z,64.10
2019-05-26T03:53:06.055Z,64.10
2019-05-26T03:55:39.773Z,64.10
2019-05-26T03:58:13.487Z,64.10
2019-05-26T04:00:47.287Z,64.50
2019-05-26T04:03:21.024Z,64.60
2019-05-26T04:05:54.801Z,64.80
2019-05-26T04:08:28.549Z,64.90
2019-05-26T04:11:02.269Z,64.70
2019-05-26T04:13:36.006Z,64.80
2019-05-26T04:16:09.726Z,64.70
2019-05-26T04:18:43.480Z,64.90
2019-05-26T04:21:17.359Z,65.10
2019-05-26T04:23:51.151Z,64.90
2019-05-26T04:26:24.961Z,64.70
2019-05-26T04:28:58.725Z,65.00
2019-05-26T04:31:32.604Z,65.20
2019-05-26T04:34:06.558Z,65.10
2019-05-26T04:36:40.284Z,65.00
2019-05-26T04:39:14.047Z,65.10
2019-05-26T04:41:47.769Z,65.10
2019-05-26T04:44:21.589Z,65.60
2019-05-26T04:46:55.384Z,65.20
2019-05-26T04:49:29.111Z,65.10
2019-05-26T04:52:02.853Z,65.10
2019-05-26T04:54:36.534Z,65.30
2019-05-26T04:57:10.411Z,65.10
2019-05-26T04:59:44.086Z,65.00
2019-05-26T05:02:18.834Z,65.30
2019-05-26T05:04:52.515Z,64.90
2019-05-26T05:07:28.554Z,65.00
2019-05-26T05:10:01.590Z,64.90
2019-05-26T05:12:35.272Z,64.60
2019-05-26T05:15:09.820Z,64.60
2019-05-26T05:17:43.543Z,64.40
2019-05-26T05:20:17.346Z,64.50
2019-05-26T05:22:51.043Z,64.40
2019-05-26T05:25:25.031Z,64.40
2019-05-26T05:27:58.877Z,64.30
2019-05-26T05:30:32.748Z,64.30
2019-05-26T05:33:06.589Z,64.10
2019-05-26T05:35:40.682Z,64.10
2019-05-26T05:38:14.431Z,64.00
2019-05-26T05:40:58.872Z,64.00
2019-05-26T05:43:23.683Z,63.90
2019-05-26T05:45:57.506Z,63.80
2019-05-26T05:48:31.344Z,63.90
2019-05-26T05:51:05.089Z,64.10
2019-05-26T05:53:38.809Z,63.80
2019-05-26T05:56:12.536Z,63.90
2019-05-26T05:58:46.431Z,63.90
2019-05-26T06:01:20.373Z,63.70
2019-05-26T06:03:54.082Z,63.90
2019-05-26T06:06:27.798Z,63.80
2019-05-26T06:09:01.613Z,63.80
2019-05-26T06:11:35.359Z,63.70
2019-05-26T06:14:09.046Z,64.00
2019-05-26T06:16:43.000Z,64.00
2019-05-26T06:19:16.852Z,63.90
2019-05-26T06:21:50.463Z,63.90
2019-05-26T06:24:24.068Z,63.90
2019-05-26T06:26:57.897Z,63.70
2019-05-26T06:29:31.641Z,63.60
2019-05-26T06:32:05.495Z,63.90
2019-05-26T06:34:39.812Z,63.80
2019-05-26T06:37:13.660Z,63.80
2019-05-26T06:39:47.439Z,63.40
2019-05-26T06:42:21.196Z,64.30
2019-05-26T06:44:54.847Z,63.50
2019-05-26T06:47:28.580Z,63.20
2019-05-26T06:50:02.452Z,63.00
2019-05-26T06:52:36.164Z,63.10
2019-05-26T06:55:10.356Z,63.10
2019-05-26T06:57:44.451Z,63.10
2019-05-26T07:00:18.381Z,63.10
2019-05-26T07:02:52.109Z,63.00
2019-05-26T07:05:25.894Z,62.90
2019-05-26T07:07:59.577Z,62.70
2019-05-26T07:10:33.252Z,62.80
2019-05-26T07:13:07.178Z,62.80
2019-05-26T07:15:40.949Z,62.80
2019-05-26T07:18:14.692Z,62.90
2019-05-26T07:20:48.628Z,62.90
2019-05-26T07:23:22.327Z,63.20
2019-05-26T07:25:55.986Z,63.00
2019-05-26T07:28:29.711Z,63.20
2019-05-26T07:31:03.597Z,63.20
2019-05-26T07:33:37.252Z,63.10
2019-05-26T07:36:10.935Z,63.00
2019-05-26T07:38:44.715Z,62.70
2019-05-26T07:41:18.499Z,62.70
2019-05-26T07:43:52.142Z,62.40
2019-05-26T07:46:25.961Z,62.30
2019-05-26T07:48:59.621Z,62.20
2019-05-26T07:51:33.416Z,62.30
2019-05-26T07:54:07.202Z,62.30
2019-05-26T07:56:41.122Z,62.30
2019-05-26T07:59:14.856Z,63.10
2019-05-26T08:01:48.598Z,62.70
2019-05-26T08:04:22.583Z,62.70
2019-05-26T08:06:56.411Z,62.70
2019-05-26T08:09:30.225Z,63.00
2019-05-26T08:12:04.150Z,63.00
2019-05-26T08:14:37.887Z,63.20
2019-05-26T08:17:11.531Z,63.40
2019-05-26T08:19:45.275Z,63.20
2019-05-26T08:22:20.313Z,63.30
2019-05-26T08:24:54.119Z,63.30
2019-05-26T08:27:27.732Z,63.40
2019-05-26T08:30:01.604Z,63.20
2019-05-26T08:32:35.517Z,63.00
2019-05-26T08:35:09.341Z,63.00
2019-05-26T08:37:43.107Z,62.80
2019-05-26T08:40:16.877Z,62.80
2019-05-26T08:42:51.287Z,62.60
2019-05-26T08:45:25.139Z,62.60
2019-05-26T08:47:59.578Z,62.50
2019-05-26T08:50:34.434Z,62.50
2019-05-26T08:53:08.680Z,62.50
2019-05-26T08:55:42.374Z,62.30
2019-05-26T08:58:16.100Z,62.00
2019-05-26T09:00:49.810Z,61.80
2019-05-26T09:03:29.568Z,61.40
2019-05-26T09:06:03.318Z,61.10
2019-05-26T09:08:37.029Z,60.90
2019-05-26T09:11:10.884Z,60.80
2019-05-26T09:13:44.655Z,60.60
2019-05-26T09:16:18.382Z,60.40
2019-05-26T09:18:52.069Z,60.30
2019-05-26T09:21:25.905Z,60.20
2019-05-26T09:23:59.581Z,60.40
2019-05-26T09:26:33.276Z,60.30
2019-05-26T09:29:06.940Z,60.40
2019-05-26T09:31:40.704Z,60.20
2019-05-26T09:34:14.441Z,59.90
2019-05-26T09:36:48.100Z,59.50
2019-05-26T09:39:21.763Z,59.30
2019-05-26T09:41:55.522Z,58.90
2019-05-26T09:44:29.285Z,58.80
2019-05-26T09:47:03.010Z,58.70
2019-05-26T09:49:36.644Z,58.60
2019-05-26T09:52:10.429Z,58.40
2019-05-26T09:54:44.086Z,58.40
2019-05-26T09:57:17.879Z,58.50
2019-05-26T09:59:51.543Z,58.50
2019-05-26T10:02:25.277Z,58.70
2019-05-26T10:04:58.900Z,58.80
2019-05-26T10:07:32.594Z,58.90
2019-05-26T10:10:08.182Z,58.80
2019-05-26T10:12:42.158Z,58.40
2019-05-26T10:15:16.262Z,58.20
2019-05-26T10:17:49.949Z,57.90
2019-05-26T10:20:23.588Z,57.60
2019-05-26T10:22:57.320Z,57.20
2019-05-26T10:25:31.231Z,57.10
2019-05-26T10:28:05.119Z,56.90
2019-05-26T10:30:38.862Z,56.80
2019-05-26T10:33:12.596Z,56.70
2019-05-26T10:35:46.501Z,56.30
2019-05-26T10:38:20.165Z,55.70
2019-05-26T10:40:53.812Z,55.50
2019-05-26T10:43:27.610Z,54.90
2019-05-26T10:46:01.241Z,54.90
2019-05-26T10:48:35.023Z,54.80
2019-05-26T10:51:08.800Z,54.70
2019-05-26T10:53:42.418Z,54.70
2019-05-26T10:56:16.232Z,54.70
2019-05-26T10:58:49.860Z,54.90
2019-05-26T11:01:23.542Z,54.50
2019-05-26T11:03:57.245Z,54.40
2019-05-26T11:06:31.288Z,54.40
2019-05-26T11:09:07.524Z,54.30
2019-05-26T11:11:41.369Z,54.00
2019-05-26T11:14:15.091Z,53.80
2019-05-26T11:16:48.800Z,53.50
2019-05-26T11:19:22.573Z,53.20
2019-05-26T11:21:56.298Z,53.10
2019-05-26T11:24:29.937Z,53.20
2019-05-26T11:27:09.503Z,53.00
2019-05-26T11:29:39.254Z,52.60
2019-05-26T11:32:13.073Z,52.80
2019-05-26T11:35:00.582Z,52.70
2019-05-26T11:37:22.110Z,52.80
2019-05-26T11:39:55.754Z,52.60
2019-05-26T11:42:29.710Z,52.20
2019-05-26T11:45:04.045Z,51.90
2019-05-26T11:47:37.926Z,51.90
2019-05-26T11:50:12.036Z,51.70
2019-05-26T11:52:45.890Z,51.60
2019-05-26T11:55:19.648Z,51.40
2019-05-26T11:57:53.634Z,51.50
2019-05-26T12:00:28.319Z,51.20
2019-05-26T12:03:02.183Z,51.50
2019-05-26T12:05:35.799Z,51.50
2019-05-26T12:08:09.529Z,51.00
2019-05-26T12:10:43.410Z,51.00
2019-05-26T12:13:17.210Z,50.80
2019-05-26T12:15:51.200Z,50.90
2019-05-26T12:18:24.852Z,50.90
2019-05-26T12:20:58.548Z,51.10
2019-05-26T12:23:32.211Z,51.30
2019-05-26T12:26:06.006Z,51.20
2019-05-26T12:28:39.709Z,51.20
2019-05-26T12:31:13.603Z,50.90
2019-05-26T12:33:47.439Z,50.60
2019-05-26T12:36:21.231Z,50.20
2019-05-26T12:38:55.009Z,50.40
2019-05-26T12:41:28.745Z,50.40
2019-05-26T12:44:02.396Z,50.30
2019-05-26T12:46:36.140Z,50.60
2019-05-26T12:49:09.962Z,50.70
2019-05-26T12:51:43.756Z,50.50
2019-05-26T12:54:17.390Z,50.20
2019-05-26T12:56:51.165Z,50.00
2019-05-26T12:59:24.957Z,50.20
2019-05-26T13:01:58.774Z,50.40
2019-05-26T13:04:32.444Z,50.60
2019-05-26T13:07:06.407Z,50.70
2019-05-26T13:09:40.597Z,50.80
2019-05-26T13:12:14.404Z,50.80
2019-05-26T13:14:48.238Z,50.50
2019-05-26T13:17:22.150Z,50.30
2019-05-26T13:19:55.988Z,50.40
2019-05-26T13:22:29.642Z,50.10
2019-05-26T13:25:03.999Z,50.10
2019-05-26T13:27:37.711Z,50.10
2019-05-26T13:30:12.514Z,50.30
2019-05-26T13:32:46.509Z,50.50
2019-05-26T13:35:20.387Z,50.60
2019-05-26T13:37:55.408Z,50.90
2019-05-26T13:40:29.756Z,51.10
2019-05-26T13:43:03.775Z,51.10
2019-05-26T13:45:37.519Z,50.70
2019-05-26T13:48:11.279Z,50.90
2019-05-26T13:50:44.934Z,50.70
2019-05-26T13:53:18.705Z,50.60
2019-05-26T13:55:52.504Z,50.20
2019-05-26T13:58:26.276Z,50.30
2019-05-26T14:01:00.071Z,50.20
2019-05-26T14:03:34.018Z,50.10
2019-05-26T14:06:07.789Z,49.90
2019-05-26T14:08:41.430Z,50.00
2019-05-26T14:11:15.193Z,49.90
2019-05-26T14:13:48.954Z,49.70
2019-05-26T14:16:23.292Z,49.50
2019-05-26T14:18:58.021Z,50.30
2019-05-26T14:21:31.746Z,49.40
2019-05-26T14:24:05.503Z,49.10
2019-05-26T14:26:39.327Z,49.10
2019-05-26T14:29:13.147Z,49.20
2019-05-26T14:31:48.027Z,49.10
2019-05-26T14:34:23.110Z,48.90
2019-05-26T14:36:56.856Z,49.00
2019-05-26T14:39:30.489Z,48.70
2019-05-26T14:42:04.310Z,49.20
2019-05-26T14:44:37.989Z,49.80
2019-05-26T14:47:11.666Z,50.10
2019-05-26T14:49:45.312Z,50.20
2019-05-26T14:52:19.171Z,50.80
2019-05-26T14:54:52.917Z,51.10
2019-05-26T14:57:26.717Z,51.40
2019-05-26T15:00:00.395Z,51.60
2019-05-26T15:02:34.099Z,51.90
2019-05-26T15:05:08.777Z,52.10
2019-05-26T15:07:42.454Z,52.20
2019-05-26T15:10:16.503Z,52.40
2019-05-26T15:12:50.305Z,52.70
2019-05-26T15:15:23.914Z,53.10
2019-05-26T15:17:57.696Z,53.40
2019-05-26T15:20:31.374Z,53.70
2019-05-26T15:23:05.164Z,54.00
2019-05-26T15:25:38.873Z,54.60
2019-05-26T15:28:12.780Z,54.70
2019-05-26T15:30:46.385Z,55.10
2019-05-26T15:33:21.924Z,55.70
2019-05-26T15:35:55.798Z,55.80
2019-05-26T15:38:41.971Z,56.10
2019-05-26T15:41:04.936Z,56.40
2019-05-26T15:43:38.902Z,56.80
2019-05-26T15:46:24.095Z,56.90
2019-05-26T15:48:47.858Z,57.10
2019-05-26T15:51:21.516Z,57.20
2019-05-26T15:53:55.256Z,58.00
2019-05-26T15:56:30.696Z,57.90
2019-05-26T15:59:04.552Z,58.40
2019-05-26T16:01:38.245Z,58.70
2019-05-26T16:04:12.050Z,58.70
2019-05-26T16:06:48.225Z,59.00
2019-05-26T16:09:21.980Z,59.30
2019-05-26T16:11:55.576Z,59.60
2019-05-26T16:14:29.280Z,60.00
2019-05-26T16:17:02.948Z,60.50
2019-05-26T16:19:36.668Z,60.80
2019-05-26T16:22:10.434Z,61.10
2019-05-26T16:24:44.153Z,61.40
2019-05-26T16:27:19.473Z,61.60
2019-05-26T16:29:53.322Z,61.70
2019-05-26T16:32:27.096Z,62.20
2019-05-26T16:35:00.769Z,62.10
2019-05-26T16:37:34.480Z,63.60
2019-05-26T16:40:08.317Z,62.60
2019-05-26T16:42:42.082Z,62.90
2019-05-26T16:45:16.773Z,62.80
2019-05-26T16:47:50.543Z,63.10
2019-05-26T16:50:24.242Z,63.40
2019-05-26T16:52:57.930Z,63.40
2019-05-26T16:55:31.530Z,63.80
2019-05-26T16:58:06.819Z,63.50
2019-05-26T17:00:40.693Z,63.70
2019-05-26T17:03:14.342Z,63.90
2019-05-26T17:05:48.346Z,63.80
2019-05-26T17:08:22.057Z,63.90
2019-05-26T17:10:56.172Z,64.20
2019-05-26T17:13:32.831Z,64.20
2019-05-26T17:16:05.642Z,64.40
2019-05-26T17:18:39.312Z,64.40
2019-05-26T17:21:13.140Z,64.60
2019-05-26T17:23:46.881Z,64.60
2019-05-26T17:26:20.621Z,65.00
2019-05-26T17:28:54.402Z,65.20
2019-05-26T17:31:28.117Z,65.10
2019-05-26T17:34:01.950Z,65.20
2019-05-26T17:36:35.673Z,65.10
2019-05-26T17:39:09.555Z,65.20
2019-05-26T17:41:43.286Z,65.00
2019-05-26T17:44:18.219Z,65.00
2019-05-26T17:46:52.119Z,65.00
2019-05-26T17:49:25.978Z,65.00
2019-05-26T17:51:59.778Z,65.00
2019-05-26T17:54:33.435Z,64.80
2019-05-26T17:57:10.220Z,64.80
2019-05-26T17:59:43.950Z,65.00
2019-05-26T18:02:17.521Z,64.90
2019-05-26T18:04:51.200Z,65.00
2019-05-26T18:07:25.014Z,65.00
2019-05-26T18:09:58.790Z,65.20
2019-05-26T18:12:32.523Z,65.10
2019-05-26T18:15:07.422Z,65.30
2019-05-26T18:17:47.136Z,65.30
2019-05-26T18:20:16.653Z,65.30
2019-05-26T18:22:50.426Z,65.30
2019-05-26T18:25:24.759Z,65.30
2019-05-26T18:27:58.601Z,65.30
2019-05-26T18:30:32.592Z,65.40
2019-05-26T18:33:06.281Z,65.40
2019-05-26T18:35:40.221Z,65.30
2019-05-26T18:38:14.023Z,65.30
2019-05-26T18:40:48.323Z,65.30
2019-05-26T18:43:22.291Z,65.10
2019-05-26T18:45:56.117Z,65.10
2019-05-26T18:48:29.970Z,64.90
2019-05-26T18:51:03.956Z,65.80
2019-05-26T18:53:39.088Z,65.00
2019-05-26T18:56:12.840Z,65.00
2019-05-26T18:58:46.567Z,64.70
2019-05-26T19:01:22.569Z,64.80
2019-05-26T19:03:56.280Z,64.50
2019-05-26T19:06:30.627Z,64.50
2019-05-26T19:09:07.048Z,64.50
2019-05-26T19:11:40.844Z,64.70
2019-05-26T19:14:14.770Z,64.90
2019-05-26T19:16:49.060Z,65.10
2019-05-26T19:19:23.952Z,65.20
2019-05-26T19:21:58.017Z,65.20
2019-05-26T19:24:35.589Z,65.50
2019-05-26T19:27:11.121Z,65.60
2019-05-26T19:29:46.447Z,66.10
2019-05-26T19:32:20.326Z,66.40
2019-05-26T19:34:54.286Z,66.70
2019-05-26T19:37:28.765Z,67.10
2019-05-26T19:40:02.700Z,68.60
2019-05-26T19:42:36.538Z,67.70
2019-05-26T19:45:10.469Z,67.80
2019-05-26T19:47:44.024Z,68.20
2019-05-26T19:50:18.124Z,68.40
2019-05-26T19:52:51.967Z,68.70
2019-05-26T19:55:28.875Z,68.70
2019-05-26T19:58:04.734Z,69.10
2019-05-26T20:00:38.897Z,69.00
2019-05-26T20:03:13.195Z,69.10
2019-05-26T20:05:47.196Z,69.10
2019-05-26T20:08:21.401Z,69.30
2019-05-26T20:10:55.166Z,69.40
2019-05-26T20:13:28.973Z,69.80
2019-05-26T20:16:02.694Z,69.70
2019-05-26T20:18:36.574Z,70.00
2019-05-26T20:21:10.356Z,69.60
2019-05-26T20:23:44.282Z,70.70
2019-05-26T20:26:18.092Z,69.90
2019-05-26T20:28:54.050Z,70.10
2019-05-26T20:31:27.732Z,70.00
2019-05-26T20:34:01.342Z,70.60
2019-05-26T20:36:35.104Z,70.20
2019-05-26T20:39:09.962Z,70.60
2019-05-26T20:41:44.092Z,70.60
2019-05-26T20:44:17.957Z,70.50
2019-05-26T20:46:51.828Z,70.90
2019-05-26T20:49:25.910Z,71.20
2019-05-26T20:52:00.036Z,71.20
2019-05-26T20:54:33.799Z,71.50
2019-05-26T20:57:07.821Z,71.20
2019-05-26T20:59:41.415Z,71.50
2019-05-26T21:02:15.318Z,71.40
2019-05-26T21:04:48.977Z,71.70
2019-05-26T21:07:22.693Z,71.50
2019-05-26T21:09:56.347Z,72.00
2019-05-26T21:12:30.201Z,72.00
2019-05-26T21:15:04.612Z,72.30
2019-05-26T21:17:38.284Z,72.10
2019-05-26T21:20:12.528Z,72.20
2019-05-26T21:22:46.372Z,71.80
2019-05-26T21:25:20.039Z,71.90
2019-05-26T21:27:53.725Z,72.00
2019-05-26T21:30:27.459Z,72.10
2019-05-26T21:33:01.171Z,72.00
2019-05-26T21:35:34.851Z,72.10
2019-05-26T21:38:08.523Z,72.00
2019-05-26T21:40:42.218Z,72.60
2019-05-26T21:43:15.926Z,72.40
2019-05-26T21:45:49.583Z,72.20
2019-05-26T21:48:23.289Z,72.20
2019-05-26T21:50:57.253Z,72.50
2019-05-26T21:53:31.176Z,72.90
2019-05-26T21:56:05.195Z,72.80
2019-05-26T21:58:38.880Z,72.80
2019-05-26T22:01:12.692Z,72.60
2019-05-26T22:03:46.438Z,72.90
2019-05-26T22:06:20.338Z,72.90
2019-05-26T22:08:54.193Z,72.80
2019-05-26T22:11:28.064Z,72.80
2019-05-26T22:14:01.873Z,72.90
2019-05-26T22:16:35.613Z,73.00
2019-05-26T22:19:09.475Z,73.20
2019-05-26T22:21:43.284Z,73.00
2019-05-26T22:24:17.052Z,73.40
2019-05-26T22:26:50.845Z,73.30
2019-05-26T22:29:24.660Z,73.10
2019-05-26T22:31:58.509Z,73.30
2019-05-26T22:34:32.106Z,73.20
2019-05-26T22:37:06.064Z,73.10
2019-05-26T22:39:39.899Z,74.10
2019-05-26T22:42:13.840Z,73.30
2019-05-26T22:44:47.746Z,73.30
2019-05-26T22:47:21.596Z,73.20
2019-05-26T22:49:55.322Z,73.30
2019-05-26T22:52:29.097Z,73.40
2019-05-26T22:55:03.131Z,73.40
2019-05-26T22:57:36.976Z,73.40
2019-05-26T23:00:11.814Z,73.40
2019-05-26T23:02:45.912Z,73.50
2019-05-26T23:05:19.994Z,73.40
2019-05-26T23:07:53.752Z,73.40
2019-05-26T23:10:27.502Z,73.40
2019-05-26T23:13:01.524Z,73.30
2019-05-26T23:15:35.323Z,73.30
2019-05-26T23:18:09.248Z,73.40
2019-05-26T23:20:43.030Z,73.50
2019-05-26T23:23:16.817Z,73.40
2019-05-26T23:25:50.508Z,73.50
2019-05-26T23:28:24.332Z,74.30
2019-05-26T23:30:57.979Z,73.40
2019-05-26T23:33:31.765Z,73.40
2019-05-26T23:36:05.383Z,73.40
2019-05-26T23:38:39.271Z,73.40
2019-05-26T23:41:12.976Z,73.50
2019-05-26T23:43:46.800Z,73.60
2019-05-26T23:46:20.515Z,73.40
2019-05-26T23:48:54.209Z,73.40
2019-05-26T23:51:27.987Z,73.20
2019-05-26T23:54:01.724Z,73.20
2019-05-26T23:56:35.980Z,73.20
2019-05-26T23:59:10.144Z,73.10
